KCXO/CXO METAR and TAF weather

Enter ICAO airport designator
Station Type Date Time Source
KCXO METAR 2018/04/26 14:53 UTC NOAA

KCXO 261453Z 33013KT 10SM CLR 16/08 A3006 RMK AO2 SLP176 T01610078 51005


Station Type Date Time Source
KCXO Decoded METAR 2018/04/26 14:53 UTC NOAA

LONE STAR EXECUTIVE AIRPORT, TX, United States (KCXO) 30-21N 95-25W 75M
Apr 26, 2018 - 10:53 AM EDT / 2018.04.26 1453 UTC
Wind: from the NNW (330 degrees) at 15 MPH (13 KT):0
Visibility: 10 mile(s):0
Sky conditions: clear
Temperature: 61.0 F (16.1 C)
Dew Point: 46.0 F (7.8 C)
Relative Humidity: 57%
Pressure (altimeter): 30.06 in. Hg (1017 hPa)
Pressure tendency: 0.01 inches (0.5 hPa) higher than three hours ago
ob: KCXO 261453Z 33013KT 10SM CLR 16/08 A3006 RMK AO2 SLP176 T01610078 51005
cycle: 15

Station Type Date Time Source
KCXO TAF 2018/04/26 12:22 UTC NOAA

TAF KCXO 261120Z 2612/2712 33008KT P6SM SKC
FM270000 34004KT P6SM SCT250


Example: see airport list